createdAt,value
2022-08-25T00:00:49.193Z,60.07
2022-08-25T00:03:16.698Z,59.76
2022-08-25T00:05:43.401Z,60.45
2022-08-25T00:08:10.149Z,60.00
2022-08-25T00:10:37.722Z,60.22
2022-08-25T00:13:05.123Z,60.08
2022-08-25T00:15:32.522Z,60.38
2022-08-25T00:18:00.202Z,60.41
2022-08-25T00:20:28.343Z,60.56
2022-08-25T00:22:56.312Z,60.78
2022-08-25T00:25:23.770Z,60.71
2022-08-25T00:27:50.938Z,60.65
2022-08-25T00:30:18.300Z,60.54
2022-08-25T00:32:55.096Z,61.15
2022-08-25T00:35:24.693Z,61.47
2022-08-25T00:37:51.323Z,61.93
2022-08-25T00:40:18.092Z,61.70
2022-08-25T00:42:44.880Z,62.40
2022-08-25T00:45:11.603Z,61.85
2022-08-25T00:47:38.314Z,61.66
2022-08-25T00:50:08.811Z,61.67
2022-08-25T00:52:41.214Z,62.08
2022-08-25T00:55:21.924Z,62.27
2022-08-25T00:57:53.062Z,61.90
2022-08-25T01:00:22.513Z,61.61
2022-08-25T01:02:49.286Z,62.28
2022-08-25T01:05:16.529Z,62.17
2022-08-25T01:07:44.723Z,62.12
2022-08-25T01:10:13.643Z,62.10
2022-08-25T01:12:40.891Z,62.89
2022-08-25T01:15:08.550Z,62.18
2022-08-25T01:17:39.299Z,62.30
2022-08-25T01:20:06.159Z,62.40
2022-08-25T01:22:32.849Z,61.56
2022-08-25T01:25:05.350Z,62.67
2022-08-25T01:27:32.036Z,62.32
2022-08-25T01:29:58.739Z,62.33
2022-08-25T01:32:25.459Z,63.38
2022-08-25T01:34:52.115Z,62.77
2022-08-25T01:37:19.469Z,63.08
2022-08-25T01:39:46.260Z,63.55
2022-08-25T01:42:13.784Z,63.00
2022-08-25T01:44:42.802Z,62.39
2022-08-25T01:47:09.869Z,62.85
2022-08-25T01:49:36.906Z,64.44
2022-08-25T01:52:06.812Z,63.83
2022-08-25T01:54:33.508Z,64.67
2022-08-25T01:57:00.132Z,64.00
2022-08-25T01:59:27.591Z,64.12
2022-08-25T02:02:00.052Z,62.96
2022-08-25T02:04:29.633Z,63.73
2022-08-25T02:06:56.345Z,64.38
2022-08-25T02:09:23.166Z,63.83
2022-08-25T02:11:49.823Z,63.27
2022-08-25T02:14:17.132Z,63.20
2022-08-25T02:16:46.069Z,63.53
2022-08-25T02:19:12.757Z,64.47
2022-08-25T02:21:39.662Z,63.79
2022-08-25T02:24:07.143Z,64.16
2022-08-25T02:26:33.916Z,63.80
2022-08-25T02:29:01.474Z,64.00
2022-08-25T02:31:29.031Z,64.12
2022-08-25T02:33:55.821Z,63.34
2022-08-25T02:36:23.477Z,63.62
2022-08-25T02:38:50.767Z,63.31
2022-08-25T02:41:20.352Z,63.92
2022-08-25T02:43:48.820Z,63.96
2022-08-25T02:46:16.905Z,64.05
2022-08-25T02:48:43.596Z,64.10
2022-08-25T02:51:10.628Z,65.60
2022-08-25T02:53:42.382Z,64.86
2022-08-25T02:56:09.994Z,64.55
2022-08-25T02:58:37.492Z,64.64
2022-08-25T03:01:04.304Z,65.84
2022-08-25T03:03:31.248Z,67.51
2022-08-25T03:05:57.939Z,66.27
2022-08-25T03:08:24.941Z,67.29
2022-08-25T03:10:52.036Z,65.48
2022-08-25T03:13:18.771Z,65.71
2022-08-25T03:15:46.034Z,67.68
2022-08-25T03:18:16.188Z,66.67
2022-08-25T03:20:44.708Z,67.55
2022-08-25T03:23:11.360Z,67.66
2022-08-25T03:26:00.709Z,67.72
2022-08-25T03:28:30.104Z,68.55
2022-08-25T03:30:57.524Z,68.28
2022-08-25T03:33:24.160Z,68.13
2022-08-25T03:35:50.800Z,70.00
2022-08-25T03:38:17.498Z,69.15
2022-08-25T03:40:44.190Z,67.05
2022-08-25T03:43:10.905Z,67.75
2022-08-25T03:45:44.635Z,67.00
2022-08-25T03:48:11.587Z,68.71
2022-08-25T03:50:43.682Z,69.24
2022-08-25T03:53:17.950Z,67.45
2022-08-25T03:55:44.604Z,67.72
2022-08-25T03:58:12.526Z,68.41
2022-08-25T04:00:39.565Z,68.43
2022-08-25T04:03:06.494Z,68.82
2022-08-25T04:05:40.104Z,68.85
2022-08-25T04:08:07.458Z,67.96
2022-08-25T04:10:34.581Z,69.13
2022-08-25T04:13:01.583Z,69.40
2022-08-25T04:15:42.600Z,69.97
2022-08-25T04:18:09.221Z,70.12
2022-08-25T04:20:35.875Z,70.50
2022-08-25T04:23:02.760Z,70.20
2022-08-25T04:25:42.478Z,70.26
2022-08-25T04:28:09.684Z,70.31
2022-08-25T04:30:36.896Z,70.45
2022-08-25T04:33:05.394Z,70.51
2022-08-25T04:35:43.441Z,71.19
2022-08-25T04:38:10.101Z,71.11
2022-08-25T04:40:36.763Z,70.59
2022-08-25T04:43:03.436Z,70.78
2022-08-25T04:45:41.814Z,70.91
2022-08-25T04:48:08.700Z,70.56
2022-08-25T04:50:38.245Z,70.67
2022-08-25T04:53:04.883Z,71.12
2022-08-25T04:55:49.801Z,71.08
2022-08-25T04:58:17.177Z,71.11
2022-08-25T05:00:44.284Z,71.24
2022-08-25T05:03:11.214Z,71.37
2022-08-25T05:05:41.878Z,70.79
2022-08-25T05:08:08.731Z,71.00
2022-08-25T05:10:39.131Z,71.47
2022-08-25T05:13:06.023Z,71.35
2022-08-25T05:15:50.980Z,70.94
2022-08-25T05:18:18.906Z,70.66
2022-08-25T05:20:45.686Z,70.63
2022-08-25T05:23:14.476Z,70.50
2022-08-25T05:25:44.707Z,70.47
2022-08-25T05:28:11.595Z,70.07
2022-08-25T05:30:39.772Z,70.78
2022-08-25T05:33:07.262Z,70.07
2022-08-25T05:35:40.106Z,70.72
2022-08-25T05:38:07.117Z,70.86
2022-08-25T05:40:36.132Z,70.62
2022-08-25T05:43:03.016Z,70.51
2022-08-25T05:45:41.402Z,71.02
2022-08-25T05:48:08.830Z,70.75
2022-08-25T05:50:39.408Z,71.29
2022-08-25T05:53:06.387Z,70.78
2022-08-25T05:55:38.655Z,70.93
2022-08-25T05:58:05.590Z,71.15
2022-08-25T06:00:32.719Z,71.38
2022-08-25T06:02:59.590Z,70.94
2022-08-25T06:05:30.979Z,71.27
2022-08-25T06:07:57.795Z,71.01
2022-08-25T06:10:25.307Z,71.53
2022-08-25T06:12:52.182Z,71.21
2022-08-25T06:15:21.667Z,70.98
2022-08-25T06:17:49.234Z,71.07
2022-08-25T06:20:17.718Z,70.92
2022-08-25T06:22:45.095Z,70.89
2022-08-25T06:25:13.218Z,70.91
2022-08-25T06:27:40.095Z,70.61
2022-08-25T06:30:08.997Z,71.06
2022-08-25T06:32:39.376Z,70.66
2022-08-25T06:35:08.992Z,70.49
2022-08-25T06:37:36.220Z,71.17
2022-08-25T06:40:04.297Z,71.17
2022-08-25T06:42:31.369Z,70.40
2022-08-25T06:44:58.186Z,71.08
2022-08-25T06:47:25.160Z,71.28
2022-08-25T06:49:52.261Z,71.24
2022-08-25T06:52:19.293Z,71.23
2022-08-25T06:54:46.112Z,71.11
2022-08-25T06:57:15.915Z,70.75
2022-08-25T06:59:42.787Z,71.00
2022-08-25T07:02:09.906Z,70.88
2022-08-25T07:04:37.047Z,70.73
2022-08-25T07:07:04.333Z,70.68
2022-08-25T07:09:39.441Z,71.47
2022-08-25T07:12:19.154Z,71.73
2022-08-25T07:14:58.045Z,71.52
2022-08-25T07:17:25.509Z,71.27
2022-08-25T07:19:52.481Z,71.15
2022-08-25T07:22:26.295Z,70.83
2022-08-25T07:24:53.322Z,70.92
2022-08-25T07:27:21.016Z,70.81
2022-08-25T07:29:50.610Z,70.93
2022-08-25T07:32:18.672Z,71.06
2022-08-25T07:35:05.426Z,71.34
2022-08-25T07:37:47.845Z,71.74
2022-08-25T07:40:18.061Z,71.36
2022-08-25T07:42:45.313Z,71.57
2022-08-25T07:45:12.718Z,71.09
2022-08-25T07:47:39.878Z,71.34
2022-08-25T07:50:08.381Z,71.47
2022-08-25T07:52:35.110Z,71.27
2022-08-25T07:55:08.218Z,71.28
2022-08-25T07:57:39.518Z,71.25
2022-08-25T08:00:07.268Z,71.74
2022-08-25T08:02:37.757Z,71.66
2022-08-25T08:05:04.657Z,71.66
2022-08-25T08:07:43.820Z,71.50
2022-08-25T08:10:42.476Z,71.44
2022-08-25T08:12:59.206Z,71.44
2022-08-25T08:15:29.945Z,71.26
2022-08-25T08:17:57.073Z,71.14
2022-08-25T08:20:25.120Z,70.92
2022-08-25T08:22:51.969Z,71.06
2022-08-25T08:25:21.572Z,71.05
2022-08-25T08:27:55.234Z,71.08
2022-08-25T08:30:22.397Z,71.09
2022-08-25T08:33:09.101Z,70.98
2022-08-25T08:35:37.463Z,71.06
2022-08-25T08:38:10.266Z,71.20
2022-08-25T08:41:08.038Z,70.98
2022-08-25T08:43:35.719Z,70.91
2022-08-25T08:46:03.592Z,71.36
2022-08-25T08:48:34.350Z,70.76
2022-08-25T08:51:04.770Z,71.36
2022-08-25T08:53:49.362Z,71.14
2022-08-25T08:56:23.107Z,71.43
2022-08-25T08:58:56.005Z,70.97
2022-08-25T09:01:31.069Z,70.86
2022-08-25T09:04:05.156Z,71.60
2022-08-25T09:06:34.280Z,71.61
2022-08-25T09:09:04.025Z,71.43
2022-08-25T09:11:52.162Z,71.44
2022-08-25T09:14:18.832Z,71.22
2022-08-25T09:16:55.622Z,71.31
2022-08-25T09:19:29.095Z,71.10
2022-08-25T09:22:35.975Z,71.20
2022-08-25T09:25:12.254Z,71.15
2022-08-25T09:27:44.936Z,70.95
2022-08-25T09:30:14.374Z,71.09
2022-08-25T09:32:52.308Z,71.34
2022-08-25T09:35:24.428Z,71.71
2022-08-25T09:38:02.035Z,71.47
2022-08-25T09:40:31.241Z,71.46
2022-08-25T09:42:59.586Z,71.34
2022-08-25T09:45:40.081Z,70.97
2022-08-25T09:48:23.325Z,70.93
2022-08-25T09:50:51.692Z,70.88
2022-08-25T09:53:19.139Z,70.97
2022-08-25T09:56:00.035Z,71.05
2022-08-25T09:58:27.588Z,71.43
2022-08-25T10:01:13.389Z,70.97
2022-08-25T10:03:56.993Z,71.26
2022-08-25T10:06:24.443Z,71.76
2022-08-25T10:08:51.563Z,71.31
2022-08-25T10:11:30.472Z,71.01
2022-08-25T10:14:06.294Z,71.22
2022-08-25T10:16:35.728Z,71.55
2022-08-25T10:19:08.436Z,71.56
2022-08-25T10:21:36.334Z,71.69
2022-08-25T10:24:06.043Z,71.68
2022-08-25T10:26:52.943Z,71.68
2022-08-25T10:29:19.672Z,71.55
2022-08-25T10:31:56.216Z,71.62
2022-08-25T10:34:35.872Z,72.13
2022-08-25T10:37:15.597Z,71.85
2022-08-25T10:39:58.849Z,71.75
2022-08-25T10:42:29.675Z,72.28
2022-08-25T10:45:17.177Z,71.84
2022-08-25T10:47:48.711Z,72.09
2022-08-25T10:50:15.290Z,72.35
2022-08-25T10:52:52.244Z,72.24
2022-08-25T10:55:40.446Z,72.46
2022-08-25T10:58:07.273Z,72.31
2022-08-25T11:00:48.183Z,73.05
2022-08-25T11:03:30.162Z,72.68
2022-08-25T11:06:11.653Z,72.57
2022-08-25T11:08:41.057Z,72.87
2022-08-25T11:11:12.144Z,73.03
2022-08-25T11:13:47.908Z,72.59
2022-08-25T11:16:18.769Z,72.82
2022-08-25T11:19:05.602Z,72.96
2022-08-25T11:21:51.685Z,72.34
2022-08-25T11:24:18.473Z,73.02
2022-08-25T11:26:49.601Z,72.98
2022-08-25T11:29:17.996Z,72.96
2022-08-25T11:31:50.751Z,73.39
2022-08-25T11:34:19.816Z,73.29
2022-08-25T11:36:51.719Z,72.87
2022-08-25T11:39:37.699Z,72.46
2022-08-25T11:42:22.640Z,72.38
2022-08-25T11:44:59.350Z,72.11
2022-08-25T11:47:34.406Z,72.72
2022-08-25T11:50:07.233Z,72.87
2022-08-25T11:52:34.676Z,72.87
2022-08-25T11:55:12.240Z,72.38
2022-08-25T11:57:39.518Z,72.56
2022-08-25T12:00:13.609Z,72.96
2022-08-25T12:02:45.053Z,72.54
2022-08-25T12:05:40.148Z,72.20
2022-08-25T12:08:25.668Z,73.29
2022-08-25T12:10:54.087Z,73.55
2022-08-25T12:13:50.801Z,72.90
2022-08-25T12:16:40.781Z,72.85
2022-08-25T12:19:26.431Z,72.98
2022-08-25T12:22:15.692Z,72.98
2022-08-25T12:24:47.298Z,72.67
2022-08-25T12:27:33.548Z,71.91
2022-08-25T12:30:18.364Z,72.79
2022-08-25T12:33:03.356Z,72.66
2022-08-25T12:35:42.584Z,72.86
2022-08-25T12:38:17.447Z,72.67
2022-08-25T12:40:45.306Z,72.33
2022-08-25T12:43:33.955Z,72.17
2022-08-25T12:46:29.918Z,72.65
2022-08-25T12:49:00.569Z,71.50
2022-08-25T12:51:28.864Z,71.84
2022-08-25T12:54:15.901Z,72.01
2022-08-25T12:56:47.915Z,71.39
2022-08-25T12:59:22.995Z,71.24
2022-08-25T13:01:49.792Z,72.09
2022-08-25T13:04:37.475Z,71.65
2022-08-25T13:07:31.426Z,70.78
2022-08-25T13:10:04.277Z,71.30
2022-08-25T13:12:35.514Z,70.83
2022-08-25T13:15:02.169Z,70.64
2022-08-25T13:17:30.584Z,70.14
2022-08-25T13:20:12.894Z,70.38
2022-08-25T13:22:40.245Z,71.00
2022-08-25T13:25:07.224Z,70.40
2022-08-25T13:27:35.763Z,69.66
2022-08-25T13:30:03.981Z,70.10
2022-08-25T13:32:35.112Z,70.29
2022-08-25T13:35:24.669Z,69.93
2022-08-25T13:37:54.091Z,69.83
2022-08-25T13:40:24.821Z,69.59
2022-08-25T13:42:56.234Z,70.05
2022-08-25T13:45:25.668Z,69.72
2022-08-25T13:47:56.067Z,69.31
2022-08-25T13:50:26.514Z,69.57
2022-08-25T13:52:58.981Z,68.14
2022-08-25T13:55:51.385Z,68.95
2022-08-25T13:58:24.979Z,69.13
2022-08-25T14:01:23.240Z,68.87
2022-08-25T14:04:19.101Z,68.25
2022-08-25T14:06:45.957Z,67.84
2022-08-25T14:09:16.549Z,68.13
2022-08-25T14:11:45.097Z,67.62
2022-08-25T14:14:14.874Z,67.73
2022-08-25T14:16:49.679Z,67.64
2022-08-25T14:19:20.340Z,67.37
2022-08-25T14:21:47.598Z,67.92
2022-08-25T14:24:22.577Z,66.90
2022-08-25T14:26:54.899Z,66.07
2022-08-25T14:29:22.348Z,66.63
2022-08-25T14:31:49.807Z,66.52
2022-08-25T14:34:17.970Z,66.88
2022-08-25T14:36:48.574Z,66.59
2022-08-25T14:39:15.280Z,66.91
2022-08-25T14:41:44.395Z,66.70
2022-08-25T14:44:13.756Z,66.44
2022-08-25T14:46:45.899Z,66.87
2022-08-25T14:49:16.100Z,67.20
2022-08-25T14:51:43.469Z,66.82
2022-08-25T14:54:15.027Z,67.21
2022-08-25T14:56:43.230Z,67.21
2022-08-25T14:59:10.243Z,67.54
2022-08-25T15:01:37.185Z,67.22
2022-08-25T15:04:06.761Z,66.58
2022-08-25T15:06:34.849Z,66.91
2022-08-25T15:09:13.796Z,66.64
2022-08-25T15:11:44.486Z,66.60
2022-08-25T15:14:12.369Z,66.54
2022-08-25T15:16:43.933Z,67.06
2022-08-25T15:19:15.646Z,67.08
2022-08-25T15:21:43.043Z,66.51
2022-08-25T15:24:10.631Z,66.73
2022-08-25T15:29:37.872Z,66.34
2022-08-25T15:32:05.549Z,65.98
2022-08-25T15:34:32.419Z,66.26
2022-08-25T15:37:00.599Z,65.89
2022-08-25T15:39:29.482Z,65.60
2022-08-25T15:41:57.287Z,65.19
2022-08-25T15:44:28.603Z,64.95
2022-08-25T15:46:56.329Z,65.36
2022-08-25T15:49:24.089Z,65.58
2022-08-25T15:51:54.531Z,65.63
2022-08-25T15:54:22.475Z,66.12
2022-08-25T15:56:49.132Z,65.67
2022-08-25T15:59:15.944Z,65.63
2022-08-25T16:01:44.600Z,65.82
2022-08-25T16:04:14.603Z,64.98
2022-08-25T16:06:41.441Z,65.11
2022-08-25T16:09:08.267Z,64.94
2022-08-25T16:11:35.411Z,64.94
2022-08-25T16:14:05.415Z,64.63
2022-08-25T16:16:32.606Z,64.87
2022-08-25T16:18:59.401Z,65.21
2022-08-25T16:21:29.945Z,64.48
2022-08-25T16:23:58.556Z,64.95
2022-08-25T16:26:26.352Z,64.73
2022-08-25T16:28:53.546Z,65.05
2022-08-25T16:31:20.877Z,64.67
2022-08-25T16:33:49.030Z,65.00
2022-08-25T16:36:17.373Z,64.78
2022-08-25T16:38:49.096Z,64.34
2022-08-25T16:41:17.577Z,64.63
2022-08-25T16:43:45.581Z,64.20
2022-08-25T16:46:14.437Z,64.26
2022-08-25T16:48:41.572Z,64.17
2022-08-25T16:51:09.539Z,64.25
2022-08-25T16:53:55.000Z,64.65
2022-08-25T16:56:25.057Z,64.21
2022-08-25T16:58:55.535Z,64.48
2022-08-25T17:01:25.499Z,64.39
2022-08-25T17:03:53.086Z,63.92
2022-08-25T17:06:20.291Z,64.23
2022-08-25T17:08:49.724Z,64.16
2022-08-25T17:11:18.195Z,63.74
2022-08-25T17:13:46.260Z,63.93
2022-08-25T17:16:14.657Z,64.08
2022-08-25T17:18:41.602Z,64.28
2022-08-25T17:21:10.065Z,64.09
2022-08-25T17:23:43.692Z,63.24
2022-08-25T17:26:14.783Z,63.64
2022-08-25T17:28:41.787Z,63.65
2022-08-25T17:31:09.218Z,63.76
2022-08-25T17:33:36.512Z,64.23
2022-08-25T17:36:05.958Z,63.58
2022-08-25T17:38:33.889Z,63.86
2022-08-25T17:41:02.715Z,63.59
2022-08-25T17:43:31.937Z,63.56
2022-08-25T17:45:58.652Z,63.54
2022-08-25T17:48:26.825Z,64.01
2022-08-25T17:50:53.670Z,63.87
2022-08-25T17:53:21.250Z,63.74
2022-08-25T17:55:56.694Z,63.41
2022-08-25T17:58:25.086Z,63.74
2022-08-25T18:00:54.428Z,63.67
2022-08-25T18:03:21.308Z,63.98
2022-08-25T18:05:50.011Z,63.67
2022-08-25T18:08:19.883Z,63.66
2022-08-25T18:10:59.124Z,63.62
2022-08-25T18:13:26.918Z,63.58
2022-08-25T18:15:55.231Z,63.46
2022-08-25T18:18:21.871Z,63.92
2022-08-25T18:20:50.972Z,63.35
2022-08-25T18:23:19.738Z,63.43
2022-08-25T18:25:47.903Z,63.53
2022-08-25T18:28:15.871Z,63.13
2022-08-25T18:30:42.762Z,63.36
2022-08-25T18:33:10.052Z,63.45
2022-08-25T18:35:42.277Z,63.13
2022-08-25T18:38:27.692Z,63.23
2022-08-25T18:40:55.797Z,63.08
2022-08-25T18:43:22.626Z,62.74
2022-08-25T18:45:51.051Z,62.84
2022-08-25T18:48:20.261Z,62.57
2022-08-25T18:50:50.648Z,62.47
2022-08-25T18:53:18.898Z,62.59
2022-08-25T18:55:58.546Z,62.79
2022-08-25T18:58:26.236Z,62.27
2022-08-25T19:00:53.110Z,62.95
2022-08-25T19:03:22.619Z,62.35
2022-08-25T19:05:57.348Z,62.16
2022-08-25T19:08:24.862Z,62.07
2022-08-25T19:10:53.927Z,62.59
2022-08-25T19:13:22.703Z,62.65
2022-08-25T19:15:50.032Z,62.24
2022-08-25T19:18:18.726Z,62.04
2022-08-25T19:20:52.895Z,62.21
2022-08-25T19:23:20.032Z,62.24
2022-08-25T19:25:46.871Z,62.09
2022-08-25T19:28:14.155Z,62.40
2022-08-25T19:30:43.701Z,62.55
2022-08-25T19:33:42.460Z,62.45
2022-08-25T19:36:08.835Z,62.17
2022-08-25T19:38:36.461Z,62.42
2022-08-25T19:41:13.946Z,62.04
2022-08-25T19:43:55.311Z,61.92
2022-08-25T19:46:25.683Z,62.16
2022-08-25T19:49:04.911Z,62.16
2022-08-25T19:51:34.778Z,62.13
2022-08-25T19:54:02.844Z,62.06
2022-08-25T19:56:30.305Z,62.00
2022-08-25T19:58:57.618Z,62.18
2022-08-25T20:01:24.671Z,62.04
2022-08-25T20:03:52.439Z,61.68
2022-08-25T20:06:19.403Z,61.75
2022-08-25T20:08:46.301Z,61.74
2022-08-25T20:11:13.215Z,62.17
2022-08-25T20:13:40.064Z,62.04
2022-08-25T20:16:07.183Z,61.36
2022-08-25T20:18:33.996Z,61.10
2022-08-25T20:21:01.199Z,61.58
2022-08-25T20:23:46.693Z,61.60
2022-08-25T20:26:13.792Z,61.41
2022-08-25T20:28:42.218Z,61.41
2022-08-25T20:31:09.562Z,61.29
2022-08-25T20:33:36.547Z,61.09
2022-08-25T20:36:05.082Z,61.18
2022-08-25T20:38:32.916Z,60.82
2022-08-25T20:41:00.956Z,60.63
2022-08-25T20:43:28.302Z,61.28
2022-08-25T20:46:04.586Z,61.33
2022-08-25T20:48:31.658Z,61.56
2022-08-25T20:50:58.655Z,61.04
2022-08-25T20:53:25.906Z,61.02
2022-08-25T20:55:53.007Z,61.26
2022-08-25T20:58:20.525Z,60.92
2022-08-25T21:00:47.434Z,60.82
2022-08-25T21:03:14.517Z,61.05
2022-08-25T21:05:46.091Z,61.26
2022-08-25T21:08:13.374Z,60.79
2022-08-25T21:10:40.368Z,60.81
2022-08-25T21:13:07.219Z,60.92
2022-08-25T21:15:38.861Z,60.83
2022-08-25T21:18:05.783Z,61.02
2022-08-25T21:20:33.081Z,60.83
2022-08-25T21:23:00.255Z,60.74
2022-08-25T21:25:35.558Z,60.81
2022-08-25T21:28:02.577Z,60.94
2022-08-25T21:30:29.743Z,60.91
2022-08-25T21:32:56.875Z,61.05
2022-08-25T21:35:23.848Z,60.55
2022-08-25T21:37:53.367Z,60.43
2022-08-25T21:40:21.253Z,60.45
2022-08-25T21:42:49.156Z,60.71
2022-08-25T21:45:16.699Z,60.95
2022-08-25T21:47:47.838Z,60.67
2022-08-25T21:50:14.799Z,60.58
2022-08-25T21:52:42.440Z,60.29
2022-08-25T21:55:15.855Z,60.36
2022-08-25T21:57:43.101Z,60.32
2022-08-25T22:00:11.101Z,60.56
2022-08-25T22:02:38.402Z,60.38
2022-08-25T22:05:05.328Z,60.32
2022-08-25T22:07:40.481Z,60.44
2022-08-25T22:10:16.763Z,60.27
2022-08-25T22:12:44.862Z,60.22
2022-08-25T22:15:12.522Z,60.16
2022-08-25T22:17:40.645Z,60.37
2022-08-25T22:20:08.145Z,60.01
2022-08-25T22:22:35.947Z,60.15
2022-08-25T22:25:03.264Z,60.14
2022-08-25T22:27:30.552Z,59.75
2022-08-25T22:29:57.611Z,60.24
2022-08-25T22:32:24.390Z,59.75
2022-08-25T22:34:51.176Z,59.55
2022-08-25T22:37:18.157Z,59.95
2022-08-25T22:39:48.120Z,59.70
2022-08-25T22:42:14.987Z,59.66
2022-08-25T22:44:42.945Z,60.01
2022-08-25T22:47:11.867Z,59.83
2022-08-25T22:49:39.514Z,59.67
2022-08-25T22:52:06.948Z,59.71
2022-08-25T22:54:36.586Z,59.92
2022-08-25T22:57:06.752Z,59.31
2022-08-25T22:59:33.668Z,59.70
2022-08-25T23:02:00.546Z,59.69
2022-08-25T23:04:27.212Z,59.49
2022-08-25T23:06:53.871Z,59.12
2022-08-25T23:09:21.609Z,59.41
2022-08-25T23:11:51.306Z,59.36
2022-08-25T23:14:18.396Z,58.99
2022-08-25T23:16:45.288Z,59.24
2022-08-25T23:19:13.866Z,59.18
2022-08-25T23:21:59.436Z,58.96
2022-08-25T23:24:29.195Z,59.02
2022-08-25T23:27:01.672Z,59.11
2022-08-25T23:29:29.875Z,58.56
2022-08-25T23:31:57.857Z,58.94
2022-08-25T23:34:25.178Z,58.59
2022-08-25T23:36:52.382Z,58.62
2022-08-25T23:39:21.699Z,58.00
2022-08-25T23:41:50.084Z,58.39
2022-08-25T23:44:17.720Z,58.08
2022-08-25T23:46:47.091Z,58.00
2022-08-25T23:49:14.620Z,58.03
2022-08-25T23:51:46.574Z,58.57
2022-08-25T23:54:13.548Z,58.99
2022-08-25T23:56:44.492Z,58.90
2022-08-25T23:59:18.257Z,59.04
